»·PEaware :: WAT295 KSBP-KONT

WAT295 :: KSBP-KONT

FLIGHT INFORMATION

Flight Status: Arrived
Operator: Unknown
More flights by this operator :: More flights under this callsign
Pilot: Corentin D. (28157)
Aircraft: MOONEY M-20K/M ENCORE BRAVO
(M20T)
More flights by this aircraft type
Origin: KSBP San Luis Co Regl
United States
Destination: KONT Ontario Intl
United States
More flights between these airports :: More routes between these airports
Route: RZS V186 PDZ
File this flight plan on PilotEdge
Remarks: TEC route SBAP51
Altitude:
(Current/Filed)
7,000ft
Speed:
(Current/Filed)
190kts
Departed: 30-Jul-20 02:34 PM
Arrived: 30-Jul-20 03:45 PM
Distance/Time
Traveled:
166nm/1:11
Distance/Time
To Go:
Arrived

Flight Plot

Page will automatically refresh every two minutes.


Map Options




Map Legend


Flown Route
Filed Route
Departure Airport
Arrival Airport
Navaid (VOR, NDB)
Fix

Horizontal Profiles

Position Reports

Time Latitude Longitude Heading Altitude Ground
Speed
30-Jul-20 14:18 35.235690 -120.633760 213 220ft 0kts
30-Jul-20 14:19 35.235690 -120.633760 213 220ft 0kts
30-Jul-20 14:20 35.235690 -120.633760 213 220ft 0kts
30-Jul-20 14:21 35.235690 -120.633760 213 220ft 0kts
30-Jul-20 14:22 35.235690 -120.633760 213 220ft 0kts
30-Jul-20 14:23 35.235690 -120.633760 213 220ft 0kts
30-Jul-20 14:24 35.235690 -120.633760 213 220ft 0kts
30-Jul-20 14:25 35.235690 -120.633760 213 220ft 0kts
30-Jul-20 14:26 35.235690 -120.633760 213 220ft 0kts
30-Jul-20 14:27 35.235690 -120.633760 213 220ft 0kts
30-Jul-20 14:28 35.235690 -120.633760 213 220ft 0kts
30-Jul-20 14:29 35.234706 -120.633956 120 220ft 11kts
30-Jul-20 14:30 35.233276 -120.632411 208 217ft 0kts
30-Jul-20 14:31 35.233276 -120.632411 208 217ft 0kts
30-Jul-20 14:32 35.232901 -120.632724 227 212ft 17kts
30-Jul-20 14:33 35.244071 -120.653321 301 1322ft 92kts
30-Jul-20 14:34 35.258926 -120.679478 301 3049ft 98kts
30-Jul-20 14:35 35.275263 -120.706867 301 4783ft 103kts
30-Jul-20 14:36 35.269091 -120.729901 169 6496ft 107kts
30-Jul-20 14:37 35.240086 -120.696493 137 7011ft 185kts
30-Jul-20 14:38 35.201439 -120.647613 137 7007ft 205kts
30-Jul-20 14:39 35.162789 -120.598174 136 7009ft 196kts
30-Jul-20 14:40 35.125200 -120.550043 136 7013ft 194kts
30-Jul-20 14:41 35.087813 -120.502298 136 7018ft 193kts
30-Jul-20 14:42 35.050508 -120.454736 136 7024ft 192kts
30-Jul-20 14:43 35.013373 -120.407456 137 7025ft 192kts
30-Jul-20 14:44 34.975943 -120.359865 137 7026ft 193kts
30-Jul-20 14:45 34.938485 -120.312314 139 7023ft 193kts
30-Jul-20 14:46 34.900964 -120.264738 140 7023ft 194kts
30-Jul-20 14:47 34.862816 -120.216545 141 7020ft 196kts
30-Jul-20 14:48 34.824205 -120.168715 140 6994ft 197kts
30-Jul-20 14:49 34.785921 -120.120557 140 6982ft 196kts
30-Jul-20 14:50 34.747711 -120.072391 140 6975ft 196kts
30-Jul-20 14:51 34.709573 -120.024377 140 6971ft 196kts
30-Jul-20 14:52 34.672200 -119.975345 134 6972ft 197kts
30-Jul-20 14:53 34.634485 -119.927183 139 6970ft 195kts
30-Jul-20 14:54 34.596346 -119.879847 139 6969ft 195kts
30-Jul-20 14:55 34.559315 -119.833542 139 6967ft 194kts
30-Jul-20 14:56 34.521344 -119.786081 139 6965ft 194kts
30-Jul-20 14:57 34.488809 -119.732402 128 6964ft 197kts
30-Jul-20 14:58 34.458661 -119.677489 128 6964ft 197kts
30-Jul-20 14:59 34.428505 -119.622074 128 6964ft 197kts
30-Jul-20 15:00 34.398309 -119.566564 128 6964ft 197kts
30-Jul-20 15:01 34.368076 -119.511066 128 6966ft 197kts
30-Jul-20 15:02 34.337672 -119.455328 128 6998ft 197kts
30-Jul-20 15:03 34.318393 -119.393614 86 7009ft 211kts
30-Jul-20 15:04 34.323651 -119.322527 87 7006ft 211kts
30-Jul-20 15:05 34.328959 -119.251681 87 7007ft 212kts
30-Jul-20 15:06 34.334328 -119.180401 87 7004ft 212kts
30-Jul-20 15:07 34.339650 -119.109176 87 7002ft 212kts
30-Jul-20 15:08 34.344830 -119.037608 87 6999ft 212kts
30-Jul-20 15:09 34.350153 -118.965493 87 6999ft 214kts
30-Jul-20 15:11 34.355455 -118.893487 89 7026ft 213kts
30-Jul-20 15:12 34.338669 -118.827130 117 7027ft 206kts
30-Jul-20 15:13 34.317187 -118.765698 116 7026ft 206kts
30-Jul-20 15:14 34.295169 -118.701481 116 7020ft 206kts
30-Jul-20 15:15 34.274465 -118.640978 116 7011ft 205kts
30-Jul-20 15:16 34.252763 -118.577689 116 6998ft 201kts
30-Jul-20 15:17 34.231506 -118.515812 116 6992ft 197kts
30-Jul-20 15:18 34.211709 -118.455081 113 6996ft 196kts
30-Jul-20 15:19 34.193335 -118.393259 113 6998ft 194kts
30-Jul-20 15:20 34.174783 -118.331965 113 7004ft 192kts
30-Jul-20 15:21 34.156324 -118.271322 113 7006ft 191kts
30-Jul-20 15:22 34.137982 -118.211137 112 7003ft 190kts
30-Jul-20 15:23 34.119756 -118.151146 112 6999ft 188kts
30-Jul-20 15:24 34.101554 -118.091627 110 6994ft 196kts
30-Jul-20 15:25 34.081659 -118.026638 112 6999ft 211kts
30-Jul-20 15:26 34.060925 -117.959704 112 6248ft 210kts
30-Jul-20 15:27 34.040431 -117.893340 112 5236ft 207kts
30-Jul-20 15:28 34.021603 -117.832033 112 5019ft 179kts
30-Jul-20 15:28 34.007560 -117.786504 110 5009ft 165kts
30-Jul-20 15:30 33.988548 -117.728538 112 5009ft 155kts
30-Jul-20 15:31 33.971546 -117.680616 112 5009ft 154kts
30-Jul-20 15:31 33.957518 -117.640816 112 5009ft 154kts
30-Jul-20 15:32 33.939968 -117.591017 112 5010ft 174kts
30-Jul-20 15:33 33.920470 -117.536223 112 4957ft 181kts
30-Jul-20 15:34 33.936563 -117.479805 57 3933ft 178kts
30-Jul-20 15:35 33.960677 -117.433000 57 3608ft 151kts
30-Jul-20 15:36 33.982274 -117.390955 57 3609ft 144kts
30-Jul-20 15:37 34.010025 -117.359574 343 3610ft 149kts
30-Jul-20 15:38 34.042970 -117.390148 309 3609ft 151kts
30-Jul-20 15:39 34.054722 -117.437233 270 3302ft 154kts
30-Jul-20 15:40 34.054947 -117.487466 269 2507ft 114kts
30-Jul-20 15:41 34.054775 -117.518829 268 2006ft 86kts
30-Jul-20 15:42 34.054760 -117.546347 267 1567ft 82kts
30-Jul-20 15:43 34.054938 -117.574651 267 1107ft 83kts
30-Jul-20 15:44 34.054470 -117.593778 232 921ft 15kts
30-Jul-20 15:45 34.053837 -117.595542 266 918ft 13kts
30-Jul-20 15:46 34.053837 -117.600885 268 920ft 16kts
30-Jul-20 15:47 34.053827 -117.606238 273 923ft 14kts
30-Jul-20 15:48 34.053795 -117.611012 267 926ft 12kts
30-Jul-20 15:49 34.052861 -117.611649 180 920ft 0kts

Navigation Log

Ident Type
Flight plan parsing failed, navigation log unavailable